sensor_id;sensor_type;location;lat;lon;timestamp;P1;durP1;ratioP1;P2;durP2;ratioP2
42000;SDS011;27689;48.390;10.856;2023-06-14T00:00:36;10.13;;;4.68;;
42000;SDS011;27689;48.390;10.856;2023-06-14T00:03:22;6.63;;;4.53;;
42000;SDS011;27689;48.390;10.856;2023-06-14T00:06:08;5.40;;;4.40;;
42000;SDS011;27689;48.390;10.856;2023-06-14T00:08:52;4.35;;;3.78;;
42000;SDS011;27689;48.390;10.856;2023-06-14T00:11:36;4.57;;;3.92;;
42000;SDS011;27689;48.390;10.856;2023-06-14T00:14:19;6.85;;;4.20;;
42000;SDS011;27689;48.390;10.856;2023-06-14T00:17:04;5.57;;;4.57;;
42000;SDS011;27689;48.390;10.856;2023-06-14T00:19:48;5.18;;;3.92;;
42000;SDS011;27689;48.390;10.856;2023-06-14T00:22:32;7.00;;;4.25;;
42000;SDS011;27689;48.390;10.856;2023-06-14T00:25:16;6.50;;;4.32;;
42000;SDS011;27689;48.390;10.856;2023-06-14T00:28:00;6.72;;;4.43;;
42000;SDS011;27689;48.390;10.856;2023-06-14T00:30:44;4.93;;;4.20;;
42000;SDS011;27689;48.390;10.856;2023-06-14T00:33:30;4.95;;;4.45;;
42000;SDS011;27689;48.390;10.856;2023-06-14T00:36:13;6.40;;;5.05;;
42000;SDS011;27689;48.390;10.856;2023-06-14T00:38:57;5.13;;;4.63;;
42000;SDS011;27689;48.390;10.856;2023-06-14T00:41:41;5.68;;;4.32;;
42000;SDS011;27689;48.390;10.856;2023-06-14T00:44:25;8.43;;;4.18;;
42000;SDS011;27689;48.390;10.856;2023-06-14T00:47:09;4.90;;;4.18;;
42000;SDS011;27689;48.390;10.856;2023-06-14T00:49:53;7.33;;;4.40;;
42000;SDS011;27689;48.390;10.856;2023-06-14T00:52:39;5.57;;;4.20;;
42000;SDS011;27689;48.390;10.856;2023-06-14T00:55:23;4.97;;;4.13;;
42000;SDS011;27689;48.390;10.856;2023-06-14T00:58:07;6.03;;;4.13;;
42000;SDS011;27689;48.390;10.856;2023-06-14T01:00:53;5.68;;;4.47;;
42000;SDS011;27689;48.390;10.856;2023-06-14T01:06:24;4.97;;;4.22;;
42000;SDS011;27689;48.390;10.856;2023-06-14T01:09:25;4.47;;;3.90;;
42000;SDS011;27689;48.390;10.856;2023-06-14T01:12:20;5.70;;;4.05;;
42000;SDS011;27689;48.390;10.856;2023-06-14T01:15:14;4.72;;;4.10;;
42000;SDS011;27689;48.390;10.856;2023-06-14T01:17:59;6.40;;;4.60;;
42000;SDS011;27689;48.390;10.856;2023-06-14T01:21:00;7.05;;;4.47;;
42000;SDS011;27689;48.390;10.856;2023-06-14T01:23:49;6.13;;;4.30;;
42000;SDS011;27689;48.390;10.856;2023-06-14T01:26:36;4.95;;;4.45;;
42000;SDS011;27689;48.390;10.856;2023-06-14T01:29:22;4.72;;;3.67;;
42000;SDS011;27689;48.390;10.856;2023-06-14T01:32:08;6.93;;;4.55;;
42000;SDS011;27689;48.390;10.856;2023-06-14T01:34:52;5.87;;;4.47;;
42000;SDS011;27689;48.390;10.856;2023-06-14T01:37:36;7.38;;;4.72;;
42000;SDS011;27689;48.390;10.856;2023-06-14T01:40:21;5.90;;;4.50;;
42000;SDS011;27689;48.390;10.856;2023-06-14T01:45:50;5.85;;;4.43;;
42000;SDS011;27689;48.390;10.856;2023-06-14T01:48:37;4.88;;;3.90;;
42000;SDS011;27689;48.390;10.856;2023-06-14T01:51:21;7.83;;;4.77;;
42000;SDS011;27689;48.390;10.856;2023-06-14T01:54:05;6.53;;;4.22;;
42000;SDS011;27689;48.390;10.856;2023-06-14T01:56:49;4.95;;;4.22;;
42000;SDS011;27689;48.390;10.856;2023-06-14T01:59:33;7.47;;;4.47;;
42000;SDS011;27689;48.390;10.856;2023-06-14T02:02:18;5.75;;;4.78;;
42000;SDS011;27689;48.390;10.856;2023-06-14T02:05:02;8.00;;;5.40;;
42000;SDS011;27689;48.390;10.856;2023-06-14T02:07:47;8.00;;;5.30;;
42000;SDS011;27689;48.390;10.856;2023-06-14T02:10:31;6.50;;;4.73;;
42000;SDS011;27689;48.390;10.856;2023-06-14T02:13:15;5.95;;;4.68;;
42000;SDS011;27689;48.390;10.856;2023-06-14T02:15:59;5.85;;;4.50;;
42000;SDS011;27689;48.390;10.856;2023-06-14T02:18:43;6.63;;;4.78;;
42000;SDS011;27689;48.390;10.856;2023-06-14T02:21:27;6.97;;;5.32;;
42000;SDS011;27689;48.390;10.856;2023-06-14T02:24:11;5.57;;;4.63;;
42000;SDS011;27689;48.390;10.856;2023-06-14T02:26:55;6.43;;;5.22;;
42000;SDS011;27689;48.390;10.856;2023-06-14T02:29:39;7.47;;;4.90;;
42000;SDS011;27689;48.390;10.856;2023-06-14T02:32:23;5.93;;;4.90;;
42000;SDS011;27689;48.390;10.856;2023-06-14T02:35:07;6.78;;;4.93;;
42000;SDS011;27689;48.390;10.856;2023-06-14T02:37:52;6.60;;;4.93;;
42000;SDS011;27689;48.390;10.856;2023-06-14T02:40:36;6.05;;;4.70;;
42000;SDS011;27689;48.390;10.856;2023-06-14T02:43:20;7.50;;;5.40;;
42000;SDS011;27689;48.390;10.856;2023-06-14T02:46:04;5.68;;;4.50;;
42000;SDS011;27689;48.390;10.856;2023-06-14T02:48:48;7.35;;;4.85;;
42000;SDS011;27689;48.390;10.856;2023-06-14T02:51:32;6.40;;;4.97;;
42000;SDS011;27689;48.390;10.856;2023-06-14T02:54:16;5.77;;;5.03;;
42000;SDS011;27689;48.390;10.856;2023-06-14T02:57:00;7.57;;;5.40;;
42000;SDS011;27689;48.390;10.856;2023-06-14T02:59:44;6.85;;;4.80;;
42000;SDS011;27689;48.390;10.856;2023-06-14T03:02:28;7.03;;;5.07;;
42000;SDS011;27689;48.390;10.856;2023-06-14T03:05:12;6.20;;;4.93;;
42000;SDS011;27689;48.390;10.856;2023-06-14T03:07:56;8.45;;;5.32;;
42000;SDS011;27689;48.390;10.856;2023-06-14T03:13:27;10.40;;;5.80;;
42000;SDS011;27689;48.390;10.856;2023-06-14T03:16:11;6.30;;;4.77;;
42000;SDS011;27689;48.390;10.856;2023-06-14T03:18:55;6.82;;;5.15;;
42000;SDS011;27689;48.390;10.856;2023-06-14T03:21:39;7.72;;;5.35;;
42000;SDS011;27689;48.390;10.856;2023-06-14T03:24:27;10.88;;;5.78;;
42000;SDS011;27689;48.390;10.856;2023-06-14T03:27:11;8.88;;;5.38;;
42000;SDS011;27689;48.390;10.856;2023-06-14T03:32:41;8.77;;;5.32;;
42000;SDS011;27689;48.390;10.856;2023-06-14T03:35:25;6.15;;;5.00;;
42000;SDS011;27689;48.390;10.856;2023-06-14T03:38:09;7.82;;;5.65;;
42000;SDS011;27689;48.390;10.856;2023-06-14T03:40:53;6.60;;;5.40;;
42000;SDS011;27689;48.390;10.856;2023-06-14T03:43:37;6.88;;;5.40;;
42000;SDS011;27689;48.390;10.856;2023-06-14T03:46:20;9.32;;;6.40;;
42000;SDS011;27689;48.390;10.856;2023-06-14T03:49:04;7.73;;;5.83;;
42000;SDS011;27689;48.390;10.856;2023-06-14T03:51:49;9.40;;;5.88;;
42000;SDS011;27689;48.390;10.856;2023-06-14T03:54:34;6.65;;;5.43;;
42000;SDS011;27689;48.390;10.856;2023-06-14T03:57:19;8.27;;;6.15;;
42000;SDS011;27689;48.390;10.856;2023-06-14T04:02:49;7.28;;;5.50;;
42000;SDS011;27689;48.390;10.856;2023-06-14T04:05:33;6.82;;;5.35;;
42000;SDS011;27689;48.390;10.856;2023-06-14T04:08:17;8.10;;;5.90;;
42000;SDS011;27689;48.390;10.856;2023-06-14T04:11:03;8.13;;;5.57;;
42000;SDS011;27689;48.390;10.856;2023-06-14T04:13:47;7.73;;;6.07;;
42000;SDS011;27689;48.390;10.856;2023-06-14T04:16:31;7.05;;;5.18;;
42000;SDS011;27689;48.390;10.856;2023-06-14T04:19:15;10.27;;;5.90;;
42000;SDS011;27689;48.390;10.856;2023-06-14T04:21:59;6.63;;;5.85;;
42000;SDS011;27689;48.390;10.856;2023-06-14T04:24:45;7.82;;;6.00;;
42000;SDS011;27689;48.390;10.856;2023-06-14T04:27:29;7.63;;;6.33;;
42000;SDS011;27689;48.390;10.856;2023-06-14T04:30:17;10.05;;;6.05;;
42000;SDS011;27689;48.390;10.856;2023-06-14T04:33:01;10.70;;;5.90;;
42000;SDS011;27689;48.390;10.856;2023-06-14T04:35:49;8.68;;;6.13;;
42000;SDS011;27689;48.390;10.856;2023-06-14T04:38:37;7.68;;;6.07;;
42000;SDS011;27689;48.390;10.856;2023-06-14T04:41:21;8.45;;;5.35;;
42000;SDS011;27689;48.390;10.856;2023-06-14T04:46:51;7.22;;;5.57;;
42000;SDS011;27689;48.390;10.856;2023-06-14T04:49:35;7.77;;;5.97;;
42000;SDS011;27689;48.390;10.856;2023-06-14T04:52:19;6.72;;;5.28;;
42000;SDS011;27689;48.390;10.856;2023-06-14T04:55:04;6.88;;;5.30;;
42000;SDS011;27689;48.390;10.856;2023-06-14T04:57:48;8.68;;;5.93;;
42000;SDS011;27689;48.390;10.856;2023-06-14T05:00:32;7.35;;;5.50;;
42000;SDS011;27689;48.390;10.856;2023-06-14T05:03:16;10.15;;;5.35;;
42000;SDS011;27689;48.390;10.856;2023-06-14T05:06:02;11.10;;;6.05;;
42000;SDS011;27689;48.390;10.856;2023-06-14T05:08:46;7.47;;;6.00;;
42000;SDS011;27689;48.390;10.856;2023-06-14T05:11:30;9.90;;;6.17;;
42000;SDS011;27689;48.390;10.856;2023-06-14T05:14:14;8.95;;;5.68;;
42000;SDS011;27689;48.390;10.856;2023-06-14T05:16:58;7.07;;;5.67;;
42000;SDS011;27689;48.390;10.856;2023-06-14T05:19:43;8.00;;;5.35;;
42000;SDS011;27689;48.390;10.856;2023-06-14T05:22:27;10.88;;;6.25;;
42000;SDS011;27689;48.390;10.856;2023-06-14T05:25:11;11.43;;;5.88;;
42000;SDS011;27689;48.390;10.856;2023-06-14T05:27:54;7.88;;;5.78;;
42000;SDS011;27689;48.390;10.856;2023-06-14T05:30:39;7.72;;;5.60;;
42000;SDS011;27689;48.390;10.856;2023-06-14T05:33:25;8.27;;;5.45;;
42000;SDS011;27689;48.390;10.856;2023-06-14T05:36:09;7.60;;;4.95;;
42000;SDS011;27689;48.390;10.856;2023-06-14T05:38:54;6.43;;;5.33;;
42000;SDS011;27689;48.390;10.856;2023-06-14T05:41:43;7.80;;;5.10;;
42000;SDS011;27689;48.390;10.856;2023-06-14T05:44:27;6.57;;;4.50;;
42000;SDS011;27689;48.390;10.856;2023-06-14T05:47:11;8.00;;;5.83;;
42000;SDS011;27689;48.390;10.856;2023-06-14T05:49:56;5.18;;;4.68;;
42000;SDS011;27689;48.390;10.856;2023-06-14T05:52:40;7.40;;;4.87;;
42000;SDS011;27689;48.390;10.856;2023-06-14T05:55:23;6.38;;;5.28;;
42000;SDS011;27689;48.390;10.856;2023-06-14T05:58:08;8.80;;;5.72;;
42000;SDS011;27689;48.390;10.856;2023-06-14T06:00:54;7.32;;;5.28;;
42000;SDS011;27689;48.390;10.856;2023-06-14T06:03:38;6.55;;;4.93;;
42000;SDS011;27689;48.390;10.856;2023-06-14T06:06:22;7.05;;;4.97;;
42000;SDS011;27689;48.390;10.856;2023-06-14T06:09:06;6.83;;;4.90;;
42000;SDS011;27689;48.390;10.856;2023-06-14T06:11:50;7.70;;;5.63;;
42000;SDS011;27689;48.390;10.856;2023-06-14T06:14:34;7.25;;;5.00;;
42000;SDS011;27689;48.390;10.856;2023-06-14T06:17:18;10.20;;;4.85;;
42000;SDS011;27689;48.390;10.856;2023-06-14T06:20:03;7.00;;;4.70;;
42000;SDS011;27689;48.390;10.856;2023-06-14T06:22:49;7.28;;;4.63;;
42000;SDS011;27689;48.390;10.856;2023-06-14T06:25:33;5.88;;;4.97;;
42000;SDS011;27689;48.390;10.856;2023-06-14T06:28:17;6.57;;;4.47;;
42000;SDS011;27689;48.390;10.856;2023-06-14T06:31:01;6.00;;;4.23;;
42000;SDS011;27689;48.390;10.856;2023-06-14T06:33:46;6.75;;;4.40;;
42000;SDS011;27689;48.390;10.856;2023-06-14T06:36:30;5.78;;;4.35;;
42000;SDS011;27689;48.390;10.856;2023-06-14T06:39:14;6.00;;;4.35;;
42000;SDS011;27689;48.390;10.856;2023-06-14T06:41:58;5.43;;;4.30;;
42000;SDS011;27689;48.390;10.856;2023-06-14T06:44:42;5.00;;;4.45;;
42000;SDS011;27689;48.390;10.856;2023-06-14T06:47:26;7.25;;;5.05;;
42000;SDS011;27689;48.390;10.856;2023-06-14T06:50:10;5.18;;;3.95;;
42000;SDS011;27689;48.390;10.856;2023-06-14T06:52:54;9.02;;;4.53;;
42000;SDS011;27689;48.390;10.856;2023-06-14T06:55:38;7.32;;;4.97;;
42000;SDS011;27689;48.390;10.856;2023-06-14T07:01:07;10.40;;;6.05;;
42000;SDS011;27689;48.390;10.856;2023-06-14T07:03:52;7.10;;;4.95;;
42000;SDS011;27689;48.390;10.856;2023-06-14T07:06:39;6.65;;;5.00;;
42000;SDS011;27689;48.390;10.856;2023-06-14T07:09:23;8.15;;;4.40;;
42000;SDS011;27689;48.390;10.856;2023-06-14T07:14:55;6.18;;;4.38;;
42000;SDS011;27689;48.390;10.856;2023-06-14T07:17:39;6.07;;;4.07;;
42000;SDS011;27689;48.390;10.856;2023-06-14T07:20:23;8.68;;;5.00;;
42000;SDS011;27689;48.390;10.856;2023-06-14T07:25:52;7.60;;;4.30;;
42000;SDS011;27689;48.390;10.856;2023-06-14T07:28:36;4.80;;;4.23;;
42000;SDS011;27689;48.390;10.856;2023-06-14T07:31:20;6.40;;;3.85;;
42000;SDS011;27689;48.390;10.856;2023-06-14T07:34:04;7.07;;;3.92;;
42000;SDS011;27689;48.390;10.856;2023-06-14T07:36:48;5.88;;;4.05;;
42000;SDS011;27689;48.390;10.856;2023-06-14T07:39:32;4.63;;;4.07;;
42000;SDS011;27689;48.390;10.856;2023-06-14T07:42:16;5.50;;;3.53;;
42000;SDS011;27689;48.390;10.856;2023-06-14T07:45:00;5.70;;;3.90;;
42000;SDS011;27689;48.390;10.856;2023-06-14T07:47:46;7.80;;;3.38;;
42000;SDS011;27689;48.390;10.856;2023-06-14T07:50:29;4.80;;;3.35;;
42000;SDS011;27689;48.390;10.856;2023-06-14T07:53:13;5.20;;;3.40;;
42000;SDS011;27689;48.390;10.856;2023-06-14T07:55:57;6.88;;;3.47;;
42000;SDS011;27689;48.390;10.856;2023-06-14T07:58:42;8.18;;;3.42;;
42000;SDS011;27689;48.390;10.856;2023-06-14T08:01:26;5.70;;;3.30;;
42000;SDS011;27689;48.390;10.856;2023-06-14T08:04:11;5.35;;;2.95;;
42000;SDS011;27689;48.390;10.856;2023-06-14T08:06:55;5.63;;;3.53;;
42000;SDS011;27689;48.390;10.856;2023-06-14T08:09:39;5.45;;;3.22;;
42000;SDS011;27689;48.390;10.856;2023-06-14T08:12:23;4.40;;;3.50;;
42000;SDS011;27689;48.390;10.856;2023-06-14T08:15:07;7.40;;;3.63;;
42000;SDS011;27689;48.390;10.856;2023-06-14T08:17:51;5.63;;;3.53;;
42000;SDS011;27689;48.390;10.856;2023-06-14T08:20:35;8.45;;;3.20;;
42000;SDS011;27689;48.390;10.856;2023-06-14T08:23:19;6.18;;;3.70;;
42000;SDS011;27689;48.390;10.856;2023-06-14T08:28:48;6.63;;;3.33;;
42000;SDS011;27689;48.390;10.856;2023-06-14T08:31:32;6.05;;;3.72;;
42000;SDS011;27689;48.390;10.856;2023-06-14T08:34:17;4.78;;;3.17;;
42000;SDS011;27689;48.390;10.856;2023-06-14T08:37:01;4.68;;;3.10;;
42000;SDS011;27689;48.390;10.856;2023-06-14T08:39:45;6.45;;;3.85;;
42000;SDS011;27689;48.390;10.856;2023-06-14T08:42:29;5.97;;;3.33;;
42000;SDS011;27689;48.390;10.856;2023-06-14T08:45:14;4.75;;;2.95;;
42000;SDS011;27689;48.390;10.856;2023-06-14T08:47:59;5.82;;;3.10;;
42000;SDS011;27689;48.390;10.856;2023-06-14T08:50:43;3.30;;;2.92;;
42000;SDS011;27689;48.390;10.856;2023-06-14T08:53:32;4.35;;;3.00;;
42000;SDS011;27689;48.390;10.856;2023-06-14T08:56:19;4.07;;;3.00;;
42000;SDS011;27689;48.390;10.856;2023-06-14T09:01:47;5.80;;;3.00;;
42000;SDS011;27689;48.390;10.856;2023-06-14T09:04:32;7.35;;;3.15;;
42000;SDS011;27689;48.390;10.856;2023-06-14T09:10:08;6.53;;;3.15;;
42000;SDS011;27689;48.390;10.856;2023-06-14T09:12:54;4.22;;;3.35;;
42000;SDS011;27689;48.390;10.856;2023-06-14T09:18:32;6.20;;;3.45;;
42000;SDS011;27689;48.390;10.856;2023-06-14T09:21:18;4.43;;;3.25;;
42000;SDS011;27689;48.390;10.856;2023-06-14T09:24:03;5.82;;;3.53;;
42000;SDS011;27689;48.390;10.856;2023-06-14T09:26:48;4.68;;;3.10;;
42000;SDS011;27689;48.390;10.856;2023-06-14T09:29:34;3.80;;;3.25;;
42000;SDS011;27689;48.390;10.856;2023-06-14T09:32:18;6.15;;;3.40;;
42000;SDS011;27689;48.390;10.856;2023-06-14T09:35:03;4.13;;;3.33;;
42000;SDS011;27689;48.390;10.856;2023-06-14T09:40:33;7.97;;;3.10;;
42000;SDS011;27689;48.390;10.856;2023-06-14T09:43:19;4.68;;;3.05;;
42000;SDS011;27689;48.390;10.856;2023-06-14T09:46:03;3.45;;;3.03;;
42000;SDS011;27689;48.390;10.856;2023-06-14T09:48:48;5.88;;;3.47;;
42000;SDS011;27689;48.390;10.856;2023-06-14T09:51:32;8.65;;;2.90;;
42000;SDS011;27689;48.390;10.856;2023-06-14T09:54:20;5.28;;;3.33;;
42000;SDS011;27689;48.390;10.856;2023-06-14T09:57:06;5.32;;;3.00;;
42000;SDS011;27689;48.390;10.856;2023-06-14T10:02:44;5.00;;;3.20;;
42000;SDS011;27689;48.390;10.856;2023-06-14T10:05:36;5.13;;;3.50;;
42000;SDS011;27689;48.390;10.856;2023-06-14T10:08:23;4.40;;;3.13;;
42000;SDS011;27689;48.390;10.856;2023-06-14T10:11:09;3.80;;;2.80;;
42000;SDS011;27689;48.390;10.856;2023-06-14T10:13:57;4.80;;;2.80;;
42000;SDS011;27689;48.390;10.856;2023-06-14T10:16:47;4.90;;;2.63;;
42000;SDS011;27689;48.390;10.856;2023-06-14T10:19:48;4.68;;;2.72;;
42000;SDS011;27689;48.390;10.856;2023-06-14T10:22:38;3.63;;;3.00;;
42000;SDS011;27689;48.390;10.856;2023-06-14T10:25:29;5.40;;;3.05;;
42000;SDS011;27689;48.390;10.856;2023-06-14T10:28:15;4.88;;;2.60;;
42000;SDS011;27689;48.390;10.856;2023-06-14T10:33:57;4.20;;;3.30;;
42000;SDS011;27689;48.390;10.856;2023-06-14T10:36:42;5.72;;;2.80;;
42000;SDS011;27689;48.390;10.856;2023-06-14T10:39:26;5.13;;;2.45;;
42000;SDS011;27689;48.390;10.856;2023-06-14T10:42:11;6.32;;;2.80;;
42000;SDS011;27689;48.390;10.856;2023-06-14T10:44:56;3.50;;;2.53;;
42000;SDS011;27689;48.390;10.856;2023-06-14T10:47:45;6.07;;;2.92;;
42000;SDS011;27689;48.390;10.856;2023-06-14T10:50:32;5.00;;;2.70;;
42000;SDS011;27689;48.390;10.856;2023-06-14T10:53:24;5.30;;;2.70;;
42000;SDS011;27689;48.390;10.856;2023-06-14T10:56:09;3.83;;;2.80;;
42000;SDS011;27689;48.390;10.856;2023-06-14T10:59:11;6.28;;;3.10;;
42000;SDS011;27689;48.390;10.856;2023-06-14T11:04:52;4.18;;;2.90;;
42000;SDS011;27689;48.390;10.856;2023-06-14T11:10:36;3.40;;;2.88;;
42000;SDS011;27689;48.390;10.856;2023-06-14T11:13:23;3.97;;;2.75;;
42000;SDS011;27689;48.390;10.856;2023-06-14T11:16:12;7.55;;;2.90;;
42000;SDS011;27689;48.390;10.856;2023-06-14T11:18:57;5.65;;;2.90;;
42000;SDS011;27689;48.390;10.856;2023-06-14T11:21:41;4.37;;;2.60;;
42000;SDS011;27689;48.390;10.856;2023-06-14T11:24:25;3.50;;;2.43;;
42000;SDS011;27689;48.390;10.856;2023-06-14T11:27:09;4.40;;;2.70;;
42000;SDS011;27689;48.390;10.856;2023-06-14T11:29:55;4.03;;;2.90;;
42000;SDS011;27689;48.390;10.856;2023-06-14T11:32:39;4.40;;;2.83;;
42000;SDS011;27689;48.390;10.856;2023-06-14T11:35:24;5.47;;;3.03;;
42000;SDS011;27689;48.390;10.856;2023-06-14T11:38:09;6.30;;;3.20;;
42000;SDS011;27689;48.390;10.856;2023-06-14T11:40:58;8.80;;;3.10;;
42000;SDS011;27689;48.390;10.856;2023-06-14T11:43:42;6.00;;;3.00;;
42000;SDS011;27689;48.390;10.856;2023-06-14T11:46:26;5.95;;;3.00;;
42000;SDS011;27689;48.390;10.856;2023-06-14T11:49:10;3.33;;;2.80;;
42000;SDS011;27689;48.390;10.856;2023-06-14T11:51:54;4.90;;;3.00;;
42000;SDS011;27689;48.390;10.856;2023-06-14T11:54:39;4.68;;;2.90;;
42000;SDS011;27689;48.390;10.856;2023-06-14T11:57:24;4.82;;;3.00;;
42000;SDS011;27689;48.390;10.856;2023-06-14T12:00:09;4.18;;;3.17;;
42000;SDS011;27689;48.390;10.856;2023-06-14T12:02:56;3.33;;;2.67;;
42000;SDS011;27689;48.390;10.856;2023-06-14T12:05:40;4.68;;;2.55;;
42000;SDS011;27689;48.390;10.856;2023-06-14T12:08:31;4.95;;;2.78;;
42000;SDS011;27689;48.390;10.856;2023-06-14T12:11:22;5.22;;;3.00;;
42000;SDS011;27689;48.390;10.856;2023-06-14T12:14:07;3.28;;;2.47;;
42000;SDS011;27689;48.390;10.856;2023-06-14T12:17:03;7.90;;;3.13;;
42000;SDS011;27689;48.390;10.856;2023-06-14T12:19:48;4.78;;;2.85;;
42000;SDS011;27689;48.390;10.856;2023-06-14T12:22:33;4.82;;;2.83;;
42000;SDS011;27689;48.390;10.856;2023-06-14T12:25:25;4.30;;;3.07;;
42000;SDS011;27689;48.390;10.856;2023-06-14T12:28:11;6.88;;;3.20;;
42000;SDS011;27689;48.390;10.856;2023-06-14T12:30:55;42.42;;;7.65;;
42000;SDS011;27689;48.390;10.856;2023-06-14T12:33:42;51.40;;;7.55;;
42000;SDS011;27689;48.390;10.856;2023-06-14T12:36:26;9.90;;;3.80;;
42000;SDS011;27689;48.390;10.856;2023-06-14T12:39:10;5.32;;;3.00;;
42000;SDS011;27689;48.390;10.856;2023-06-14T12:41:54;6.70;;;4.63;;
42000;SDS011;27689;48.390;10.856;2023-06-14T12:44:38;5.83;;;3.30;;
42000;SDS011;27689;48.390;10.856;2023-06-14T12:47:24;10.00;;;3.67;;
42000;SDS011;27689;48.390;10.856;2023-06-14T12:50:08;4.28;;;3.20;;
42000;SDS011;27689;48.390;10.856;2023-06-14T12:52:52;4.60;;;3.27;;
42000;SDS011;27689;48.390;10.856;2023-06-14T12:55:36;3.80;;;3.00;;
42000;SDS011;27689;48.390;10.856;2023-06-14T12:58:20;4.63;;;2.73;;
42000;SDS011;27689;48.390;10.856;2023-06-14T13:01:04;6.20;;;3.63;;
42000;SDS011;27689;48.390;10.856;2023-06-14T13:03:48;6.80;;;2.80;;
42000;SDS011;27689;48.390;10.856;2023-06-14T13:06:34;4.82;;;2.90;;
42000;SDS011;27689;48.390;10.856;2023-06-14T13:09:18;5.28;;;2.70;;
42000;SDS011;27689;48.390;10.856;2023-06-14T13:12:02;3.93;;;3.03;;
42000;SDS011;27689;48.390;10.856;2023-06-14T13:14:46;5.30;;;2.60;;
42000;SDS011;27689;48.390;10.856;2023-06-14T13:17:30;4.50;;;3.30;;
42000;SDS011;27689;48.390;10.856;2023-06-14T13:20:16;5.50;;;3.05;;
42000;SDS011;27689;48.390;10.856;2023-06-14T13:23:00;4.35;;;2.53;;
42000;SDS011;27689;48.390;10.856;2023-06-14T13:25:46;3.55;;;2.80;;
42000;SDS011;27689;48.390;10.856;2023-06-14T13:28:30;5.15;;;3.30;;
42000;SDS011;27689;48.390;10.856;2023-06-14T13:31:15;6.13;;;3.10;;
42000;SDS011;27689;48.390;10.856;2023-06-14T13:33:59;6.20;;;3.20;;
42000;SDS011;27689;48.390;10.856;2023-06-14T13:36:44;5.43;;;3.00;;
42000;SDS011;27689;48.390;10.856;2023-06-14T13:39:28;3.85;;;3.25;;
42000;SDS011;27689;48.390;10.856;2023-06-14T13:42:12;4.38;;;2.90;;
42000;SDS011;27689;48.390;10.856;2023-06-14T13:44:56;4.50;;;3.23;;
42000;SDS011;27689;48.390;10.856;2023-06-14T13:47:41;3.20;;;2.90;;
42000;SDS011;27689;48.390;10.856;2023-06-14T13:50:25;5.78;;;2.75;;
42000;SDS011;27689;48.390;10.856;2023-06-14T13:53:09;4.27;;;3.20;;
42000;SDS011;27689;48.390;10.856;2023-06-14T13:55:53;5.78;;;2.78;;
42000;SDS011;27689;48.390;10.856;2023-06-14T13:58:37;7.30;;;3.33;;
42000;SDS011;27689;48.390;10.856;2023-06-14T14:01:22;8.77;;;3.10;;
42000;SDS011;27689;48.390;10.856;2023-06-14T14:04:07;4.30;;;3.28;;
42000;SDS011;27689;48.390;10.856;2023-06-14T14:06:50;3.95;;;2.67;;
42000;SDS011;27689;48.390;10.856;2023-06-14T14:09:34;6.75;;;3.28;;
42000;SDS011;27689;48.390;10.856;2023-06-14T14:12:18;3.58;;;3.00;;
42000;SDS011;27689;48.390;10.856;2023-06-14T14:15:02;3.30;;;2.78;;
42000;SDS011;27689;48.390;10.856;2023-06-14T14:17:46;3.30;;;2.67;;
42000;SDS011;27689;48.390;10.856;2023-06-14T14:20:31;7.53;;;3.17;;
42000;SDS011;27689;48.390;10.856;2023-06-14T14:23:15;3.67;;;2.97;;
42000;SDS011;27689;48.390;10.856;2023-06-14T14:25:59;4.10;;;2.80;;
42000;SDS011;27689;48.390;10.856;2023-06-14T14:28:47;6.45;;;3.08;;
42000;SDS011;27689;48.390;10.856;2023-06-14T14:31:31;4.17;;;3.27;;
42000;SDS011;27689;48.390;10.856;2023-06-14T14:34:15;4.53;;;2.88;;
42000;SDS011;27689;48.390;10.856;2023-06-14T14:36:59;3.63;;;2.80;;
42000;SDS011;27689;48.390;10.856;2023-06-14T14:39:44;6.50;;;3.28;;
42000;SDS011;27689;48.390;10.856;2023-06-14T14:42:29;4.32;;;2.92;;
42000;SDS011;27689;48.390;10.856;2023-06-14T14:45:13;6.40;;;3.08;;
42000;SDS011;27689;48.390;10.856;2023-06-14T14:47:57;4.30;;;3.38;;
42000;SDS011;27689;48.390;10.856;2023-06-14T14:50:41;5.10;;;3.45;;
42000;SDS011;27689;48.390;10.856;2023-06-14T14:53:25;5.43;;;3.10;;
42000;SDS011;27689;48.390;10.856;2023-06-14T14:56:09;7.82;;;3.15;;
42000;SDS011;27689;48.390;10.856;2023-06-14T14:58:53;4.38;;;3.17;;
42000;SDS011;27689;48.390;10.856;2023-06-14T15:01:37;5.78;;;3.28;;
42000;SDS011;27689;48.390;10.856;2023-06-14T15:04:20;4.47;;;2.90;;
42000;SDS011;27689;48.390;10.856;2023-06-14T15:07:04;3.70;;;2.97;;
42000;SDS011;27689;48.390;10.856;2023-06-14T15:15:19;4.20;;;3.00;;
42000;SDS011;27689;48.390;10.856;2023-06-14T15:18:03;4.13;;;3.00;;
42000;SDS011;27689;48.390;10.856;2023-06-14T15:20:47;3.65;;;2.80;;
42000;SDS011;27689;48.390;10.856;2023-06-14T15:23:31;6.53;;;3.15;;
42000;SDS011;27689;48.390;10.856;2023-06-14T15:26:15;5.50;;;3.17;;
42000;SDS011;27689;48.390;10.856;2023-06-14T15:28:59;4.00;;;3.00;;
42000;SDS011;27689;48.390;10.856;2023-06-14T15:31:43;8.23;;;3.20;;
42000;SDS011;27689;48.390;10.856;2023-06-14T15:34:27;5.47;;;3.35;;
42000;SDS011;27689;48.390;10.856;2023-06-14T15:37:11;7.20;;;3.10;;
42000;SDS011;27689;48.390;10.856;2023-06-14T15:39:55;3.00;;;2.38;;
42000;SDS011;27689;48.390;10.856;2023-06-14T15:42:39;8.20;;;3.33;;
42000;SDS011;27689;48.390;10.856;2023-06-14T15:45:23;6.20;;;3.30;;
42000;SDS011;27689;48.390;10.856;2023-06-14T15:48:07;3.65;;;2.83;;
42000;SDS011;27689;48.390;10.856;2023-06-14T15:50:51;3.65;;;2.97;;
42000;SDS011;27689;48.390;10.856;2023-06-14T15:53:36;6.57;;;3.13;;
42000;SDS011;27689;48.390;10.856;2023-06-14T15:56:20;5.00;;;3.03;;
42000;SDS011;27689;48.390;10.856;2023-06-14T15:59:04;5.88;;;3.40;;
42000;SDS011;27689;48.390;10.856;2023-06-14T16:01:48;5.33;;;3.40;;
42000;SDS011;27689;48.390;10.856;2023-06-14T16:04:32;3.70;;;3.03;;
42000;SDS011;27689;48.390;10.856;2023-06-14T16:07:16;4.53;;;2.90;;
42000;SDS011;27689;48.390;10.856;2023-06-14T16:10:00;5.35;;;3.10;;
42000;SDS011;27689;48.390;10.856;2023-06-14T16:12:44;7.13;;;3.20;;
42000;SDS011;27689;48.390;10.856;2023-06-14T16:15:28;3.83;;;3.10;;
42000;SDS011;27689;48.390;10.856;2023-06-14T16:18:12;3.83;;;2.90;;
42000;SDS011;27689;48.390;10.856;2023-06-14T16:20:55;4.50;;;3.30;;
42000;SDS011;27689;48.390;10.856;2023-06-14T16:23:40;4.97;;;3.00;;
42000;SDS011;27689;48.390;10.856;2023-06-14T16:26:24;6.07;;;2.90;;
42000;SDS011;27689;48.390;10.856;2023-06-14T16:29:12;4.03;;;3.30;;
42000;SDS011;27689;48.390;10.856;2023-06-14T16:31:56;3.90;;;2.97;;
42000;SDS011;27689;48.390;10.856;2023-06-14T16:34:41;6.43;;;2.70;;
42000;SDS011;27689;48.390;10.856;2023-06-14T16:37:25;7.57;;;3.03;;
42000;SDS011;27689;48.390;10.856;2023-06-14T16:40:09;6.20;;;3.40;;
42000;SDS011;27689;48.390;10.856;2023-06-14T16:42:53;4.32;;;3.15;;
42000;SDS011;27689;48.390;10.856;2023-06-14T16:45:37;3.30;;;2.88;;
42000;SDS011;27689;48.390;10.856;2023-06-14T16:48:21;4.43;;;3.25;;
42000;SDS011;27689;48.390;10.856;2023-06-14T16:51:05;5.53;;;3.33;;
42000;SDS011;27689;48.390;10.856;2023-06-14T16:53:49;5.20;;;3.22;;
42000;SDS011;27689;48.390;10.856;2023-06-14T16:56:35;5.35;;;3.05;;
42000;SDS011;27689;48.390;10.856;2023-06-14T16:59:18;6.45;;;3.40;;
42000;SDS011;27689;48.390;10.856;2023-06-14T17:02:03;4.82;;;3.10;;
42000;SDS011;27689;48.390;10.856;2023-06-14T17:04:47;7.43;;;3.67;;
42000;SDS011;27689;48.390;10.856;2023-06-14T17:07:31;6.00;;;3.70;;
42000;SDS011;27689;48.390;10.856;2023-06-14T17:10:17;4.50;;;3.27;;
42000;SDS011;27689;48.390;10.856;2023-06-14T17:13:02;3.70;;;3.20;;